createdAt,value
2019-05-09T00:04:03.356Z,10.43
2019-05-09T00:06:33.808Z,10.54
2019-05-09T00:09:03.591Z,10.62
2019-05-09T00:11:33.561Z,10.65
2019-05-09T00:14:01.620Z,10.66
2019-05-09T00:16:29.902Z,10.66
2019-05-09T00:18:58.169Z,10.64
2019-05-09T00:21:45.559Z,10.65
2019-05-09T00:24:33.377Z,10.50
2019-05-09T00:27:03.651Z,10.50
2019-05-09T00:29:52.997Z,10.59
2019-05-09T00:32:39.849Z,10.59
2019-05-09T00:35:27.299Z,10.54
2019-05-09T00:40:34.540Z,10.51
2019-05-09T00:43:03.889Z,10.52
2019-05-09T00:45:54.086Z,10.51
2019-05-09T00:51:03.277Z,10.46
2019-05-09T00:53:30.969Z,10.50
2019-05-09T00:55:59.238Z,10.46
2019-05-09T00:58:27.510Z,10.39
2019-05-09T01:01:35.817Z,10.42
2019-05-09T01:04:38.160Z,10.42
2019-05-09T01:07:06.433Z,10.42
2019-05-09T01:09:34.713Z,10.46
2019-05-09T01:12:04.141Z,10.44
2019-05-09T01:14:33.891Z,10.32
2019-05-09T01:17:04.381Z,10.35
2019-05-09T01:22:03.745Z,10.08
2019-05-09T01:24:33.779Z,10.13
2019-05-09T01:27:03.634Z,10.10
2019-05-09T01:29:33.729Z,10.09
2019-05-09T01:32:36.798Z,10.11
2019-05-09T01:35:39.296Z,10.05
2019-05-09T01:40:53.416Z,10.13
2019-05-09T01:43:21.640Z,10.07
2019-05-09T01:45:49.971Z,10.00
2019-05-09T01:48:18.190Z,10.01
2019-05-09T01:50:46.466Z,10.08
2019-05-09T01:56:03.950Z,10.02
2019-05-09T01:58:34.510Z,10.01
2019-05-09T02:03:44.292Z,10.07
2019-05-09T02:09:00.058Z,10.04
2019-05-09T02:12:26.173Z,10.05
2019-05-09T02:15:13.553Z,10.02
2019-05-09T02:20:32.736Z,9.95
2019-05-09T02:23:00.771Z,9.99
2019-05-09T02:25:29.051Z,10.01
2019-05-09T02:27:57.321Z,9.97
2019-05-09T02:30:25.731Z,9.98
2019-05-09T02:32:54.705Z,10.03
2019-05-09T02:35:23.967Z,9.98
2019-05-09T02:37:52.237Z,9.98
2019-05-09T02:40:20.588Z,9.98
2019-05-09T02:42:49.236Z,9.93
2019-05-09T02:47:59.004Z,9.90
2019-05-09T02:50:28.683Z,9.85
2019-05-09T02:52:59.077Z,9.83
2019-05-09T02:55:28.875Z,9.80
2019-05-09T03:00:59.441Z,9.76
2019-05-09T03:03:48.062Z,9.76
2019-05-09T03:06:15.075Z,9.72
2019-05-09T03:08:43.348Z,9.73
2019-05-09T03:11:11.621Z,9.71
2019-05-09T03:13:40.474Z,9.74
2019-05-09T03:24:39.367Z,9.58
2019-05-09T03:32:38.727Z,9.53
2019-05-09T03:35:48.103Z,9.52
2019-05-09T03:38:17.941Z,9.54
2019-05-09T03:40:47.654Z,9.49
2019-05-09T03:43:18.205Z,9.46
2019-05-09T03:46:07.685Z,9.48
2019-05-09T03:48:54.314Z,9.49
2019-05-09T03:51:22.592Z,9.53
2019-05-09T03:54:10.193Z,9.56
2019-05-09T03:56:57.588Z,9.44
2019-05-09T03:59:27.878Z,9.50
2019-05-09T04:01:55.844Z,9.51
2019-05-09T04:04:38.350Z,9.57
2019-05-09T04:07:08.439Z,9.57
2019-05-09T04:09:37.533Z,9.65
2019-05-09T04:12:07.551Z,9.67
2019-05-09T04:17:15.595Z,9.62
2019-05-09T04:19:43.915Z,9.67
2019-05-09T04:22:12.143Z,9.65
2019-05-09T04:24:40.498Z,9.73
2019-05-09T04:29:57.738Z,9.76
2019-05-09T04:32:27.364Z,9.95
2019-05-09T04:34:57.816Z,9.93
2019-05-09T04:37:28.107Z,10.07
2019-05-09T04:39:59.502Z,10.06
2019-05-09T04:42:28.250Z,9.90
2019-05-09T04:45:15.131Z,9.96
2019-05-09T04:48:02.756Z,10.35
2019-05-09T04:50:31.030Z,10.35
2019-05-09T04:52:59.317Z,10.53
2019-05-09T04:58:09.087Z,10.65
2019-05-09T05:00:57.302Z,10.70
2019-05-09T05:03:25.661Z,10.68
2019-05-09T05:05:53.975Z,10.60
2019-05-09T05:08:22.244Z,10.63
2019-05-09T05:10:50.519Z,10.72
2019-05-09T05:13:26.317Z,10.59
2019-05-09T05:15:48.776Z,10.70
2019-05-09T05:18:17.415Z,10.74
2019-05-09T05:20:48.185Z,10.83
2019-05-09T05:23:38.095Z,10.99
2019-05-09T05:26:06.251Z,11.27
2019-05-09T05:28:34.533Z,11.26
2019-05-09T05:31:02.806Z,11.53
2019-05-09T05:33:53.787Z,11.52
2019-05-09T05:38:59.224Z,11.45
2019-05-09T05:41:28.499Z,11.30
2019-05-09T05:43:58.119Z,11.21
2019-05-09T05:46:50.139Z,11.14
2019-05-09T05:49:18.598Z,11.25
2019-05-09T05:52:07.905Z,11.00
2019-05-09T05:54:37.682Z,11.04
2019-05-09T05:57:08.211Z,10.93
2019-05-09T05:59:40.428Z,10.92
2019-05-09T06:02:08.325Z,10.87
2019-05-09T06:04:37.930Z,10.80
2019-05-09T06:07:07.703Z,10.88
2019-05-09T06:09:37.728Z,10.93
2019-05-09T06:12:25.028Z,10.88
2019-05-09T06:14:53.301Z,10.88
2019-05-09T06:17:21.558Z,10.80
2019-05-09T06:19:49.834Z,10.81
2019-05-09T06:22:18.484Z,10.96
2019-05-09T06:24:48.122Z,10.99
2019-05-09T06:27:18.251Z,10.89
2019-05-09T06:29:47.722Z,10.83
2019-05-09T06:32:18.738Z,10.95
2019-05-09T06:34:47.738Z,11.03
2019-05-09T06:37:18.384Z,11.02
2019-05-09T06:39:48.468Z,10.96
2019-05-09T06:45:58.092Z,10.96
2019-05-09T06:48:28.394Z,10.87
2019-05-09T06:50:57.674Z,10.91
2019-05-09T06:53:27.265Z,10.86
2019-05-09T06:55:57.991Z,10.92
2019-05-09T06:58:45.137Z,10.82
2019-05-09T07:01:32.574Z,11.00
2019-05-09T07:04:19.997Z,11.13
2019-05-09T07:12:07.860Z,11.32
2019-05-09T07:17:15.176Z,11.38
2019-05-09T07:19:44.117Z,11.28
2019-05-09T07:22:32.575Z,11.27
2019-05-09T07:25:19.984Z,11.25
2019-05-09T07:27:48.545Z,11.28
2019-05-09T07:30:57.327Z,11.46
2019-05-09T07:36:14.629Z,11.50
2019-05-09T07:38:42.897Z,11.58
2019-05-09T07:41:11.183Z,11.47
2019-05-09T07:43:39.646Z,11.64
2019-05-09T07:46:28.526Z,11.63
2019-05-09T07:49:17.577Z,11.46
2019-05-09T07:51:47.739Z,11.40
2019-05-09T07:54:24.852Z,11.52
2019-05-09T07:56:48.490Z,11.66
2019-05-09T07:59:18.084Z,11.86
2019-05-09T08:01:48.476Z,11.69
2019-05-09T08:04:18.257Z,11.81
2019-05-09T08:06:48.615Z,11.74
2019-05-09T08:09:18.505Z,11.99
2019-05-09T08:11:48.318Z,12.23
2019-05-09T08:14:29.439Z,11.83
2019-05-09T08:17:28.632Z,11.83
2019-05-09T08:19:58.330Z,11.85
2019-05-09T08:22:31.868Z,11.90
2019-05-09T08:24:57.630Z,12.01
2019-05-09T08:27:30.141Z,12.08
2019-05-09T08:29:58.380Z,12.09
2019-05-09T08:32:28.663Z,12.36
2019-05-09T08:34:57.815Z,12.26
2019-05-09T08:37:28.295Z,12.38
2019-05-09T08:39:57.814Z,12.61
2019-05-09T08:42:26.226Z,12.87
2019-05-09T08:44:54.497Z,12.66
2019-05-09T08:47:22.769Z,12.49
2019-05-09T08:52:30.005Z,12.63
2019-05-09T08:57:48.176Z,12.38
2019-05-09T09:00:18.917Z,12.54
2019-05-09T09:02:48.214Z,12.70
2019-05-09T09:05:18.676Z,13.17
2019-05-09T09:07:48.555Z,13.14
2019-05-09T09:10:18.698Z,13.09
2019-05-09T09:12:47.887Z,13.25
2019-05-09T09:15:18.030Z,13.23
2019-05-09T09:17:49.118Z,13.16
2019-05-09T09:20:18.174Z,13.29
2019-05-09T09:22:48.095Z,13.51
2019-05-09T09:25:18.373Z,13.69
2019-05-09T09:27:50.864Z,13.89
2019-05-09T09:30:51.541Z,13.79
2019-05-09T09:33:19.825Z,13.91
2019-05-09T09:35:48.883Z,14.03
2019-05-09T09:38:18.107Z,13.84
2019-05-09T09:40:47.760Z,13.71
2019-05-09T09:43:17.631Z,13.31
2019-05-09T09:45:48.102Z,13.27
2019-05-09T09:48:18.084Z,13.20
2019-05-09T09:50:50.917Z,13.09
2019-05-09T09:53:18.466Z,13.06
2019-05-09T09:55:47.624Z,12.87
2019-05-09T09:58:19.048Z,12.90
2019-05-09T10:01:28.768Z,13.18
2019-05-09T10:06:48.082Z,13.75
2019-05-09T10:09:17.455Z,13.85
2019-05-09T10:11:48.111Z,13.94
2019-05-09T10:17:18.014Z,14.18
2019-05-09T10:20:06.379Z,14.10
2019-05-09T10:22:34.669Z,14.37
2019-05-09T10:25:02.931Z,14.34
2019-05-09T10:27:31.201Z,14.60
2019-05-09T10:29:59.651Z,14.58
2019-05-09T10:32:28.898Z,14.61
2019-05-09T10:34:58.217Z,14.45
2019-05-09T10:37:48.556Z,14.65
2019-05-09T10:40:53.299Z,14.97
2019-05-09T10:46:19.468Z,15.11
2019-05-09T10:51:26.885Z,14.67
2019-05-09T10:53:55.180Z,14.92
2019-05-09T10:56:23.451Z,15.04
2019-05-09T10:58:51.716Z,15.09
2019-05-09T11:01:19.988Z,15.10
2019-05-09T11:03:48.627Z,14.82
2019-05-09T11:06:18.731Z,15.10
2019-05-09T11:08:48.233Z,15.44
2019-05-09T11:11:18.347Z,15.55
2019-05-09T11:13:48.285Z,15.48
2019-05-09T11:16:18.332Z,14.96
2019-05-09T11:18:48.306Z,14.99
2019-05-09T11:21:18.874Z,14.84
2019-05-09T11:23:48.807Z,14.78
2019-05-09T11:26:17.928Z,14.76
2019-05-09T11:28:46.529Z,14.59
2019-05-09T11:31:15.748Z,14.51
2019-05-09T11:33:44.841Z,14.28
2019-05-09T11:36:13.499Z,14.35
2019-05-09T11:38:44.090Z,14.21
2019-05-09T11:41:13.114Z,13.94
2019-05-09T11:43:41.391Z,14.01
2019-05-09T11:46:10.470Z,14.17
2019-05-09T11:48:39.670Z,14.65
2019-05-09T11:51:08.991Z,14.89
2019-05-09T11:53:40.164Z,15.28
2019-05-09T11:56:08.380Z,15.69
2019-05-09T11:58:49.905Z,15.92
2019-05-09T12:01:18.885Z,15.92
2019-05-09T12:03:52.044Z,16.07
2019-05-09T12:06:19.996Z,16.23
2019-05-09T12:08:48.469Z,16.46
2019-05-09T12:11:18.708Z,16.17
2019-05-09T12:13:48.895Z,15.87
2019-05-09T12:16:18.925Z,15.59
2019-05-09T12:18:48.989Z,15.41
2019-05-09T12:21:19.459Z,15.26
2019-05-09T12:23:49.123Z,15.24
2019-05-09T12:26:18.382Z,15.36
2019-05-09T12:28:48.270Z,15.32
2019-05-09T12:31:18.122Z,15.43
2019-05-09T12:33:48.419Z,15.72
2019-05-09T12:36:28.889Z,15.88
2019-05-09T12:38:59.144Z,16.03
2019-05-09T12:41:31.672Z,16.10
2019-05-09T12:43:57.489Z,16.38
2019-05-09T12:46:28.440Z,16.24
2019-05-09T12:48:59.068Z,15.90
2019-05-09T12:51:28.144Z,15.89
2019-05-09T12:53:57.812Z,15.87
2019-05-09T12:56:28.605Z,15.66
2019-05-09T12:58:57.864Z,15.68
2019-05-09T13:01:27.093Z,15.76
2019-05-09T13:03:58.063Z,15.78
2019-05-09T13:06:25.369Z,15.87
2019-05-09T13:08:53.639Z,16.50
2019-05-09T13:11:21.913Z,16.72
2019-05-09T13:13:50.181Z,16.32
2019-05-09T13:16:45.598Z,16.72
2019-05-09T13:19:27.921Z,16.96
2019-05-09T13:21:58.783Z,16.87
2019-05-09T13:24:28.343Z,16.53
2019-05-09T13:27:09.205Z,16.43
2019-05-09T13:29:38.213Z,16.35
2019-05-09T13:32:08.794Z,16.21
2019-05-09T13:34:38.037Z,16.18
2019-05-09T13:37:09.142Z,16.35
2019-05-09T13:39:39.741Z,16.40
2019-05-09T13:42:08.147Z,16.54
2019-05-09T13:44:41.220Z,16.58
2019-05-09T13:47:10.654Z,16.61
2019-05-09T13:49:39.500Z,16.56
2019-05-09T13:52:20.903Z,16.51
2019-05-09T13:54:49.153Z,16.51
2019-05-09T13:57:18.867Z,16.57
2019-05-09T13:59:48.595Z,16.87
2019-05-09T14:02:18.747Z,17.06
2019-05-09T14:04:48.659Z,17.47
2019-05-09T14:07:19.254Z,17.89
2019-05-09T14:09:48.361Z,17.69
2019-05-09T14:12:17.761Z,17.63
2019-05-09T14:14:47.412Z,17.76
2019-05-09T14:17:18.757Z,17.80
2019-05-09T14:19:50.193Z,17.85
2019-05-09T14:22:17.941Z,17.72
2019-05-09T14:24:45.633Z,17.87
2019-05-09T14:27:13.908Z,17.69
2019-05-09T14:29:42.156Z,17.24
2019-05-09T14:32:10.429Z,17.23
2019-05-09T14:34:42.371Z,17.14
2019-05-09T14:37:09.633Z,17.11
2019-05-09T14:39:54.516Z,17.07
2019-05-09T14:42:09.283Z,16.96
2019-05-09T14:44:38.635Z,16.73
2019-05-09T14:47:08.089Z,16.67
2019-05-09T14:49:43.094Z,16.69
2019-05-09T14:52:08.084Z,16.78
2019-05-09T14:54:39.206Z,16.64
2019-05-09T14:57:09.661Z,16.66
2019-05-09T15:00:18.838Z,16.71
2019-05-09T15:02:48.945Z,16.77
2019-05-09T15:05:30.281Z,16.61
2019-05-09T15:07:59.419Z,16.61
2019-05-09T15:10:28.530Z,16.84
2019-05-09T15:12:58.525Z,17.05
2019-05-09T15:15:32.021Z,17.14
2019-05-09T15:18:17.599Z,17.36
2019-05-09T15:20:47.820Z,17.82
2019-05-09T15:23:15.872Z,17.76
2019-05-09T15:25:44.135Z,17.64
2019-05-09T15:28:12.418Z,17.25
2019-05-09T15:30:40.674Z,17.10
2019-05-09T15:33:08.951Z,16.98
2019-05-09T15:35:39.118Z,16.98
2019-05-09T15:38:08.615Z,16.90
2019-05-09T15:40:38.642Z,16.65
2019-05-09T15:43:08.307Z,16.64
2019-05-09T15:45:58.192Z,16.34
2019-05-09T15:48:27.462Z,15.92
2019-05-09T15:50:58.249Z,15.58
2019-05-09T15:53:27.833Z,15.51
2019-05-09T15:55:58.614Z,15.48
2019-05-09T15:58:28.590Z,15.33
2019-05-09T16:00:58.651Z,15.26
2019-05-09T16:03:27.900Z,15.15
2019-05-09T16:05:58.434Z,15.27
2019-05-09T16:08:28.675Z,15.24
2019-05-09T16:10:58.126Z,15.18
2019-05-09T16:13:28.301Z,15.09
2019-05-09T16:15:57.599Z,15.19
2019-05-09T16:18:28.609Z,15.21
2019-05-09T16:20:58.042Z,15.07
2019-05-09T16:23:28.854Z,15.01
2019-05-09T16:25:58.638Z,14.86
2019-05-09T16:28:26.253Z,14.77
2019-05-09T16:30:54.516Z,14.61
2019-05-09T16:33:22.800Z,14.64
2019-05-09T16:35:52.833Z,14.51
2019-05-09T16:38:21.055Z,14.54
2019-05-09T16:41:08.660Z,14.44
2019-05-09T16:43:39.198Z,14.44
2019-05-09T16:46:07.574Z,14.41
2019-05-09T16:48:36.911Z,14.34
2019-05-09T16:51:07.746Z,14.37
2019-05-09T16:53:35.230Z,14.44
2019-05-09T16:56:03.481Z,14.51
2019-05-09T16:58:32.104Z,14.53
2019-05-09T17:03:41.305Z,14.69
2019-05-09T17:06:09.559Z,14.71
2019-05-09T17:08:38.566Z,14.77
2019-05-09T17:11:07.825Z,14.70
2019-05-09T17:13:36.111Z,14.73
2019-05-09T17:16:04.367Z,14.75
2019-05-09T17:18:32.642Z,14.81
2019-05-09T17:21:24.201Z,14.89
2019-05-09T17:23:50.039Z,14.85
2019-05-09T17:26:58.335Z,14.90
2019-05-09T17:29:28.049Z,14.96
2019-05-09T17:31:58.406Z,15.05
2019-05-09T17:34:28.659Z,15.09
2019-05-09T17:36:56.635Z,15.06
2019-05-09T17:39:24.897Z,15.04
2019-05-09T17:41:53.166Z,15.04
2019-05-09T17:44:21.445Z,15.02
2019-05-09T17:46:49.710Z,15.04
2019-05-09T17:49:17.991Z,15.12
2019-05-09T17:51:48.221Z,15.13
2019-05-09T17:54:18.257Z,15.19
2019-05-09T17:56:48.255Z,15.11
2019-05-09T17:59:18.462Z,15.03
2019-05-09T18:01:48.231Z,14.99
2019-05-09T18:04:17.942Z,14.93
2019-05-09T18:06:48.676Z,14.89
2019-05-09T18:09:18.783Z,14.83
2019-05-09T18:11:48.285Z,14.90
2019-05-09T18:14:18.534Z,14.72
2019-05-09T18:16:47.815Z,14.78
2019-05-09T18:19:17.845Z,14.79
2019-05-09T18:22:19.926Z,14.80
2019-05-09T18:25:08.313Z,14.60
2019-05-09T18:27:37.942Z,14.60
2019-05-09T18:30:41.260Z,14.53
2019-05-09T18:35:48.458Z,14.34
2019-05-09T18:38:38.602Z,14.31
2019-05-09T18:41:07.946Z,14.24
2019-05-09T18:43:36.052Z,14.21
2019-05-09T18:46:04.319Z,14.24
2019-05-09T18:48:32.592Z,14.28
2019-05-09T18:51:00.871Z,14.16
2019-05-09T18:53:29.126Z,14.10
2019-05-09T18:55:57.398Z,14.06
2019-05-09T18:58:25.676Z,13.92
2019-05-09T19:03:55.525Z,13.99
2019-05-09T19:06:23.786Z,14.00
2019-05-09T19:08:52.048Z,13.86
2019-05-09T19:11:20.309Z,13.80
2019-05-09T19:13:48.616Z,13.76
2019-05-09T19:16:35.981Z,13.71
2019-05-09T19:22:06.398Z,13.61
2019-05-09T19:24:32.411Z,13.62
2019-05-09T19:27:00.704Z,13.47
2019-05-09T19:29:28.954Z,13.37
2019-05-09T19:31:57.208Z,13.37
2019-05-09T19:34:25.483Z,13.42
2019-05-09T19:36:53.760Z,13.46
2019-05-09T19:39:22.021Z,13.46
2019-05-09T19:41:50.293Z,13.48
2019-05-09T19:44:18.554Z,13.36
2019-05-09T19:46:46.833Z,13.23
2019-05-09T19:49:15.100Z,13.25
2019-05-09T19:51:43.362Z,13.23
2019-05-09T19:54:11.657Z,13.17
2019-05-09T19:56:39.929Z,13.22
2019-05-09T19:59:08.724Z,13.29
2019-05-09T20:01:38.214Z,13.29
2019-05-09T20:04:06.645Z,13.27
2019-05-09T20:06:34.907Z,13.27
2019-05-09T20:12:30.423Z,13.25
2019-05-09T20:14:58.697Z,13.25
2019-05-09T20:17:26.978Z,13.26
2019-05-09T20:19:55.239Z,13.29
2019-05-09T20:22:23.570Z,13.31
2019-05-09T20:24:51.787Z,13.31
2019-05-09T20:27:20.060Z,13.25
2019-05-09T20:29:48.337Z,13.19
2019-05-09T20:32:16.598Z,13.19
2019-05-09T20:34:44.891Z,13.19
2019-05-09T20:37:13.160Z,13.06
2019-05-09T20:39:41.647Z,12.98
2019-05-09T20:42:10.115Z,12.79
2019-05-09T20:44:38.560Z,12.62
2019-05-09T20:47:07.041Z,12.53
2019-05-09T20:49:35.469Z,12.57
2019-05-09T20:52:03.930Z,12.54
2019-05-09T20:54:32.378Z,12.44
2019-05-09T20:57:00.861Z,12.20
2019-05-09T20:59:29.297Z,12.15
2019-05-09T21:01:57.750Z,12.10
2019-05-09T21:04:26.234Z,11.99
2019-05-09T21:06:54.690Z,11.88
2019-05-09T21:09:23.158Z,11.78
2019-05-09T21:11:51.614Z,11.69
2019-05-09T21:14:20.068Z,11.72
2019-05-09T21:16:48.517Z,11.66
2019-05-09T21:19:16.990Z,11.66
2019-05-09T21:21:45.445Z,11.69
2019-05-09T21:24:13.891Z,11.71
2019-05-09T21:26:42.351Z,11.68
2019-05-09T21:29:10.813Z,11.60
2019-05-09T21:31:39.267Z,11.62
2019-05-09T21:34:07.725Z,11.65
2019-05-09T21:36:36.003Z,11.62
2019-05-09T21:39:44.302Z,11.52
2019-05-09T21:42:12.565Z,11.53
2019-05-09T21:44:40.842Z,11.43
2019-05-09T21:47:09.110Z,11.42
2019-05-09T21:49:37.377Z,11.56
2019-05-09T21:52:05.651Z,11.53
2019-05-09T21:54:33.909Z,11.65
2019-05-09T21:57:02.188Z,11.63
2019-05-09T21:59:30.468Z,11.60
2019-05-09T22:01:58.868Z,11.65
2019-05-09T22:04:27.138Z,11.68
2019-05-09T22:06:55.393Z,11.74
2019-05-09T22:09:23.646Z,11.75
2019-05-09T22:11:51.916Z,11.88
2019-05-09T22:14:20.200Z,11.93
2019-05-09T22:19:27.403Z,11.98
2019-05-09T22:21:55.691Z,11.99
2019-05-09T22:24:23.954Z,12.04
2019-05-09T22:26:52.235Z,11.98
2019-05-09T22:29:20.498Z,11.98
2019-05-09T22:31:48.807Z,12.01
2019-05-09T22:34:17.064Z,12.03
2019-05-09T22:36:45.323Z,12.06
2019-05-09T22:39:13.607Z,11.99
2019-05-09T22:41:41.867Z,12.00
2019-05-09T22:44:10.142Z,11.97
2019-05-09T22:46:38.407Z,11.99
2019-05-09T22:49:06.684Z,12.03
2019-05-09T22:51:34.942Z,12.06
2019-05-09T22:54:12.197Z,11.89
2019-05-09T22:56:33.230Z,11.77
2019-05-09T22:59:01.749Z,11.83
2019-05-09T23:01:30.031Z,11.70
2019-05-09T23:04:17.625Z,11.71
2019-05-09T23:06:45.897Z,11.78
2019-05-09T23:09:14.179Z,11.82
2019-05-09T23:11:42.455Z,11.78
2019-05-09T23:14:10.730Z,11.64
2019-05-09T23:19:27.953Z,11.65
2019-05-09T23:21:56.224Z,11.63
2019-05-09T23:29:52.391Z,11.41
2019-05-09T23:34:59.619Z,11.27
2019-05-09T23:37:27.897Z,11.13
2019-05-09T23:42:35.124Z,11.17
2019-05-09T23:48:05.008Z,11.13
2019-05-09T23:50:33.268Z,11.13
2019-05-09T23:53:01.535Z,11.12
2019-05-09T23:55:48.916Z,11.16
2019-05-09T23:58:36.311Z,10.96
